Time;durP1;ratioP1;P1;durP2;ratioP2;P2;SDS_P1;SDS_P2;PMS_P1;PMS_P2;Temp;Humidity;BMP_temperature;BMP_pressure;BME280_temperature;BME280_humidity;BME280_pressure;Samples;Min_cycle;Max_cycle;Signal;HPM_P1;HPM_P2
2021/12/19 00:00:45;;;;;;;6.20;4.00;;;;;;;;;;107753;1283;63986;-25
2021/12/19 00:03:35;;;;;;;6.90;4.20;;;;;;;;;;106743;1286;63989;-27
2021/12/19 00:11:17;;;;;;;5.80;3.60;;;;;;;;;;106728;1286;63912;-24
2021/12/19 00:13:44;;;;;;;6.70;3.90;;;;;;;;;;106811;1284;64002;-24
2021/12/19 00:16:12;;;;;;;6.20;3.50;;;;;;;;;;108235;1287;62871;-32
2021/12/19 00:18:42;;;;;;;6.30;3.50;;;;;;;;;;107080;1285;63984;-27
2021/12/19 00:21:11;;;;;;;5.50;3.10;;;;;;;;;;106597;1286;64416;-26
2021/12/19 00:23:39;;;;;;;5.50;3.30;;;;;;;;;;106778;1285;63903;-26
2021/12/19 00:26:06;;;;;;;5.80;3.60;;;;;;;;;;106619;1286;64083;-26
2021/12/19 00:28:34;;;;;;;6.90;3.50;;;;;;;;;;106797;1286;64026;-26
2021/12/19 00:31:02;;;;;;;5.50;3.40;;;;;;;;;;106728;1282;64009;-26
2021/12/19 00:33:29;;;;;;;5.40;3.30;;;;;;;;;;106788;1286;64002;-26
2021/12/19 00:35:57;;;;;;;5.20;3.00;;;;;;;;;;107306;1286;64037;-26
2021/12/19 00:38:24;;;;;;;5.40;3.10;;;;;;;;;;108385;1286;61952;-25
2021/12/19 00:40:51;;;;;;;5.50;3.60;;;;;;;;;;108982;1285;62025;-23
2021/12/19 00:43:33;;;;;;;5.00;3.30;;;;;;;;;;108138;1286;61876;-23
2021/12/19 00:46:07;;;;;;;5.30;3.10;;;;;;;;;;107541;1286;63990;-28
2021/12/19 00:48:35;;;;;;;4.70;3.00;;;;;;;;;;106724;1283;64045;-24
2021/12/19 00:51:02;;;;;;;4.90;3.10;;;;;;;;;;107073;1284;63918;-24
2021/12/19 00:53:29;;;;;;;4.50;2.70;;;;;;;;;;106739;1274;63902;-26
2021/12/19 00:55:56;;;;;;;5.00;3.20;;;;;;;;;;106708;1286;64086;-26
2021/12/19 00:58:23;;;;;;;5.70;3.30;;;;;;;;;;106478;1286;64540;-25
2021/12/19 01:00:50;;;;;;;5.70;3.10;;;;;;;;;;106777;1283;63861;-26
2021/12/19 01:03:18;;;;;;;4.60;3.00;;;;;;;;;;107967;1282;64055;-25
2021/12/19 01:05:45;;;;;;;5.30;2.80;;;;;;;;;;106487;1282;64093;-27
2021/12/19 01:08:12;;;;;;;4.70;2.90;;;;;;;;;;106782;1286;64009;-25
2021/12/19 01:10:42;;;;;;;5.90;2.80;;;;;;;;;;106732;1283;64070;-25
2021/12/19 01:13:09;;;;;;;5.00;2.70;;;;;;;;;;106800;1287;63904;-27
2021/12/19 01:15:36;;;;;;;4.70;2.80;;;;;;;;;;106792;1286;63914;-23
2021/12/19 01:18:04;;;;;;;4.90;2.80;;;;;;;;;;106416;1282;452042;-24
2021/12/19 01:20:32;;;;;;;5.00;2.70;;;;;;;;;;106493;1283;64026;-24
2021/12/19 01:22:59;;;;;;;5.20;2.80;;;;;;;;;;106797;1283;64052;-24
2021/12/19 01:25:26;;;;;;;5.50;2.70;;;;;;;;;;108465;1286;62141;-25
2021/12/19 01:27:53;;;;;;;5.00;3.00;;;;;;;;;;106703;1283;64044;-24
2021/12/19 01:30:20;;;;;;;5.00;2.70;;;;;;;;;;106496;1285;63942;-25
2021/12/19 01:32:47;;;;;;;5.10;2.70;;;;;;;;;;106722;1285;63904;-27
2021/12/19 01:35:15;;;;;;;4.90;2.60;;;;;;;;;;106748;1285;63935;-23
2021/12/19 01:37:43;;;;;;;4.90;2.40;;;;;;;;;;106678;1285;63986;-24
2021/12/19 01:40:11;;;;;;;4.20;2.10;;;;;;;;;;106735;1284;64022;-26
2021/12/19 01:42:39;;;;;;;4.20;2.30;;;;;;;;;;106708;1285;63943;-26
2021/12/19 01:45:07;;;;;;;4.70;2.20;;;;;;;;;;106729;1285;64014;-26
2021/12/19 01:47:35;;;;;;;4.10;2.10;;;;;;;;;;108650;1283;61851;-26
2021/12/19 01:50:03;;;;;;;4.90;2.20;;;;;;;;;;107010;1286;64022;-26
2021/12/19 01:52:30;;;;;;;4.30;2.40;;;;;;;;;;106707;1285;63907;-29
2021/12/19 01:54:58;;;;;;;4.20;2.00;;;;;;;;;;106690;1285;63976;-26
2021/12/19 01:57:25;;;;;;;4.70;2.30;;;;;;;;;;106726;1285;64109;-26
2021/12/19 01:59:53;;;;;;;4.30;1.80;;;;;;;;;;108287;1288;61793;-31
2021/12/19 02:02:20;;;;;;;4.30;2.10;;;;;;;;;;108966;1285;61678;-25
2021/12/19 02:04:47;;;;;;;4.20;2.30;;;;;;;;;;107634;1285;64042;-24
2021/12/19 02:07:15;;;;;;;3.80;1.80;;;;;;;;;;106764;1286;64084;-28
2021/12/19 02:09:42;;;;;;;4.30;2.30;;;;;;;;;;106817;1284;63919;-25
2021/12/19 02:12:09;;;;;;;3.80;1.90;;;;;;;;;;106746;1283;64028;-25
2021/12/19 02:14:36;;;;;;;4.00;2.00;;;;;;;;;;106815;1281;64090;-25
2021/12/19 02:17:04;;;;;;;3.60;1.90;;;;;;;;;;106717;1285;64154;-25
2021/12/19 02:19:32;;;;;;;4.00;2.00;;;;;;;;;;106780;1282;64041;-29
2021/12/19 02:21:59;;;;;;;4.10;1.90;;;;;;;;;;106868;1285;64041;-29
2021/12/19 02:24:26;;;;;;;4.00;1.80;;;;;;;;;;106715;1282;64018;-29
2021/12/19 02:26:53;;;;;;;4.00;1.90;;;;;;;;;;106513;1285;64013;-25
2021/12/19 02:29:20;;;;;;;3.70;1.70;;;;;;;;;;106742;1282;64011;-23
2021/12/19 02:31:47;;;;;;;3.60;1.70;;;;;;;;;;106463;1285;64056;-23
2021/12/19 02:34:19;;;;;;;3.70;1.70;;;;;;;;;;106733;1285;64075;-24
2021/12/19 02:39:38;;;;;;;3.70;1.60;;;;;;;;;;106723;1282;64063;-25
2021/12/19 02:50:24;;;;;;;3.20;1.50;;;;;;;;;;107612;1284;64090;-25
2021/12/19 02:52:51;;;;;;;3.20;1.40;;;;;;;;;;106729;1280;63912;-24
2021/12/19 02:55:18;;;;;;;3.70;1.50;;;;;;;;;;108047;1286;61947;-26
2021/12/19 02:57:46;;;;;;;3.50;1.50;;;;;;;;;;108027;1289;62007;-27
2021/12/19 03:00:15;;;;;;;3.60;1.60;;;;;;;;;;108991;1285;61889;-25
2021/12/19 03:02:42;;;;;;;4.10;1.90;;;;;;;;;;107960;1285;64004;-25
2021/12/19 03:05:09;;;;;;;3.70;1.60;;;;;;;;;;106703;1283;64810;-25
2021/12/19 03:07:42;;;;;;;3.30;1.40;;;;;;;;;;106766;1280;64171;-25
2021/12/19 03:10:43;;;;;;;3.20;1.40;;;;;;;;;;106781;1282;63984;-27
2021/12/19 03:18:27;;;;;;;3.60;1.40;;;;;;;;;;106770;1283;64115;-25
2021/12/19 03:20:54;;;;;;;3.00;1.30;;;;;;;;;;106768;1283;63940;-25
2021/12/19 03:23:21;;;;;;;4.30;1.40;;;;;;;;;;106477;1286;63916;-24
2021/12/19 03:25:48;;;;;;;3.20;1.40;;;;;;;;;;106698;1285;64129;-24
2021/12/19 03:28:15;;;;;;;3.20;1.60;;;;;;;;;;106746;1282;63868;-24
2021/12/19 03:30:43;;;;;;;3.20;1.40;;;;;;;;;;106492;1285;64022;-32
2021/12/19 03:33:10;;;;;;;3.60;1.40;;;;;;;;;;106722;1283;63948;-25
2021/12/19 03:35:38;;;;;;;3.70;1.30;;;;;;;;;;108000;1285;63487;-25
2021/12/19 03:38:06;;;;;;;2.90;1.30;;;;;;;;;;107368;1283;64622;-25
2021/12/19 03:40:38;;;;;;;4.10;1.40;;;;;;;;;;106701;1283;64006;-35
2021/12/19 03:43:07;;;;;;;3.00;1.20;;;;;;;;;;106686;1282;64548;-26
2021/12/19 03:45:34;;;;;;;3.00;1.10;;;;;;;;;;108437;1284;61929;-25
2021/12/19 03:48:03;;;;;;;2.90;1.20;;;;;;;;;;108715;1285;61931;-23
2021/12/19 03:50:32;;;;;;;3.70;1.40;;;;;;;;;;106834;1282;64600;-26
2021/12/19 03:53:00;;;;;;;3.00;1.20;;;;;;;;;;106821;1283;64077;-26
2021/12/19 03:55:27;;;;;;;3.20;1.20;;;;;;;;;;106732;1282;63977;-26
2021/12/19 03:57:59;;;;;;;3.10;1.10;;;;;;;;;;106493;1282;64076;-26
2021/12/19 04:00:27;;;;;;;1.90;0.80;;;;;;;;;;106730;1281;63934;-27
2021/12/19 04:02:57;;;;;;;2.40;1.10;;;;;;;;;;106518;1286;63935;-27
2021/12/19 04:05:24;;;;;;;2.70;1.10;;;;;;;;;;106704;1282;64023;-35
2021/12/19 04:07:52;;;;;;;2.40;0.90;;;;;;;;;;106479;1285;64091;-26
2021/12/19 04:10:19;;;;;;;2.60;1.00;;;;;;;;;;106746;1282;64035;-24
2021/12/19 04:12:46;;;;;;;3.00;1.00;;;;;;;;;;106706;1282;63987;-25
2021/12/19 04:15:12;;;;;;;3.20;1.20;;;;;;;;;;106734;1283;63934;-26
2021/12/19 04:17:39;;;;;;;2.90;1.10;;;;;;;;;;106688;1276;63990;-26
2021/12/19 04:20:07;;;;;;;1.90;1.00;;;;;;;;;;106686;1282;64037;-27
2021/12/19 04:22:34;;;;;;;2.60;1.10;;;;;;;;;;106787;1282;63907;-30
2021/12/19 04:25:01;;;;;;;2.60;1.10;;;;;;;;;;106707;1282;63979;-27
2021/12/19 04:27:29;;;;;;;3.40;1.30;;;;;;;;;;106734;1284;63871;-25
2021/12/19 04:29:56;;;;;;;2.80;0.90;;;;;;;;;;106500;1277;64025;-25
2021/12/19 04:32:29;;;;;;;1.90;0.90;;;;;;;;;;106781;1282;63952;-25
2021/12/19 04:34:55;;;;;;;2.10;1.00;;;;;;;;;;108979;1285;61884;-26
2021/12/19 04:44:11;;;;;;;1.90;0.90;;;;;;;;;;106752;1281;63990;-25
2021/12/19 04:51:13;;;;;;;2.40;0.90;;;;;;;;;;106767;1280;63884;-24
2021/12/19 05:14:51;;;;;;;3.20;1.00;;;;;;;;;;106741;1280;63903;-26
2021/12/19 05:17:23;;;;;;;2.20;0.90;;;;;;;;;;106726;1282;64035;-26
2021/12/19 05:20:37;;;;;;;2.60;1.00;;;;;;;;;;106763;1281;64060;-26
2021/12/19 05:22:45;;;;;;;2.70;1.20;;;;;;;;;;106682;1283;64061;-26
2021/12/19 05:25:15;;;;;;;2.70;1.20;;;;;;;;;;106786;1273;63954;-24
2021/12/19 05:27:43;;;;;;;2.30;1.00;;;;;;;;;;106397;1283;64037;-25
2021/12/19 05:30:10;;;;;;;2.90;1.20;;;;;;;;;;106801;1280;64023;-26
2021/12/19 05:32:37;;;;;;;2.20;0.90;;;;;;;;;;108255;1284;61810;-26
2021/12/19 05:35:05;;;;;;;2.70;1.10;;;;;;;;;;106648;1282;64003;-26
2021/12/19 05:45:48;;;;;;;2.70;1.20;;;;;;;;;;106737;1280;63896;-24
2021/12/19 05:48:15;;;;;;;3.40;1.30;;;;;;;;;;106745;1282;64352;-24
2021/12/19 05:50:42;;;;;;;3.10;1.40;;;;;;;;;;108466;1283;63976;-26
2021/12/19 05:53:10;;;;;;;3.60;1.50;;;;;;;;;;106879;1282;64028;-26
2021/12/19 05:55:38;;;;;;;3.10;1.40;;;;;;;;;;106636;1282;64028;-25
2021/12/19 05:58:05;;;;;;;2.70;1.30;;;;;;;;;;106786;1274;63873;-24
2021/12/19 06:00:32;;;;;;;3.00;1.40;;;;;;;;;;106615;1282;63981;-26
2021/12/19 06:03:00;;;;;;;3.70;1.50;;;;;;;;;;106775;1281;63980;-26
2021/12/19 06:05:28;;;;;;;3.00;1.40;;;;;;;;;;106742;1280;63969;-26
2021/12/19 06:07:54;;;;;;;3.50;1.30;;;;;;;;;;108524;1283;63469;-25
2021/12/19 06:10:22;;;;;;;3.60;1.50;;;;;;;;;;108294;1282;61927;-24
2021/12/19 06:12:49;;;;;;;3.70;1.40;;;;;;;;;;107846;1283;63962;-25
2021/12/19 06:15:16;;;;;;;3.10;1.30;;;;;;;;;;106570;1282;64016;-32
2021/12/19 06:17:46;;;;;;;3.00;1.50;;;;;;;;;;106765;1282;63983;-38
2021/12/19 06:20:14;;;;;;;2.90;1.20;;;;;;;;;;106749;1273;64020;-25
2021/12/19 06:22:41;;;;;;;3.40;1.40;;;;;;;;;;108291;1280;61889;-25
2021/12/19 06:25:08;;;;;;;4.20;1.50;;;;;;;;;;107137;1280;64028;-25
2021/12/19 06:27:35;;;;;;;4.30;1.40;;;;;;;;;;106785;1276;64562;-23
2021/12/19 06:30:03;;;;;;;2.90;1.30;;;;;;;;;;106840;1282;63913;-27
2021/12/19 06:32:31;;;;;;;3.60;1.60;;;;;;;;;;108420;1283;61876;-25
2021/12/19 06:34:59;;;;;;;3.40;1.30;;;;;;;;;;108108;1282;61731;-24
2021/12/19 06:37:26;;;;;;;3.00;1.30;;;;;;;;;;106811;1283;64030;-25
2021/12/19 06:39:53;;;;;;;3.70;1.60;;;;;;;;;;106584;1283;64115;-24
2021/12/19 06:42:21;;;;;;;2.80;1.50;;;;;;;;;;106765;1280;63965;-34
2021/12/19 06:44:48;;;;;;;3.20;1.40;;;;;;;;;;106569;1282;63933;-26
2021/12/19 06:47:14;;;;;;;2.70;1.20;;;;;;;;;;106804;1281;63999;-26
2021/12/19 06:49:41;;;;;;;3.10;1.40;;;;;;;;;;106777;1281;64066;-24
2021/12/19 06:52:08;;;;;;;3.40;1.20;;;;;;;;;;106746;1284;64007;-24
2021/12/19 06:54:35;;;;;;;2.70;1.30;;;;;;;;;;106572;1282;64378;-24
2021/12/19 06:57:03;;;;;;;3.70;1.40;;;;;;;;;;106726;1282;64030;-24
2021/12/19 06:59:30;;;;;;;2.60;1.20;;;;;;;;;;106777;1282;63933;-26
2021/12/19 07:01:56;;;;;;;4.90;1.50;;;;;;;;;;106839;1282;64021;-25
2021/12/19 07:04:23;;;;;;;3.70;1.30;;;;;;;;;;106749;1282;62724;-24
2021/12/19 07:06:50;;;;;;;3.60;1.40;;;;;;;;;;106752;1282;63936;-30
2021/12/19 07:09:17;;;;;;;3.50;1.40;;;;;;;;;;106745;1280;64129;-23
2021/12/19 07:11:44;;;;;;;3.40;1.30;;;;;;;;;;106888;1282;63910;-24
2021/12/19 07:14:11;;;;;;;2.80;1.10;;;;;;;;;;106781;1282;63907;-25
2021/12/19 07:16:38;;;;;;;3.40;1.30;;;;;;;;;;106576;1281;64081;-26
2021/12/19 07:19:05;;;;;;;3.30;1.30;;;;;;;;;;106691;1281;64429;-26
2021/12/19 07:21:32;;;;;;;2.70;1.10;;;;;;;;;;106799;1282;63926;-26
2021/12/19 07:23:59;;;;;;;3.30;1.20;;;;;;;;;;106550;1281;63982;-31
2021/12/19 07:26:26;;;;;;;3.10;1.30;;;;;;;;;;106750;1281;64007;-24
2021/12/19 07:28:53;;;;;;;3.00;1.60;;;;;;;;;;106604;1274;64218;-24
2021/12/19 07:31:21;;;;;;;2.20;1.10;;;;;;;;;;106802;1282;63980;-24
2021/12/19 07:33:48;;;;;;;3.10;1.30;;;;;;;;;;106925;1282;64013;-25
2021/12/19 07:36:17;;;;;;;2.90;1.20;;;;;;;;;;106593;1281;64143;-25
2021/12/19 07:38:53;;;;;;;3.40;1.30;;;;;;;;;;106655;1283;63923;-26
2021/12/19 07:41:20;;;;;;;3.20;1.40;;;;;;;;;;106777;1282;64003;-26
2021/12/19 07:43:47;;;;;;;3.90;1.40;;;;;;;;;;106786;1282;64623;-25
2021/12/19 07:46:14;;;;;;;3.20;1.40;;;;;;;;;;106826;1282;64000;-24
2021/12/19 07:48:41;;;;;;;3.20;1.40;;;;;;;;;;106791;1282;63987;-25
2021/12/19 07:51:08;;;;;;;2.70;1.10;;;;;;;;;;106779;1283;63944;-24
2021/12/19 07:53:35;;;;;;;3.30;1.30;;;;;;;;;;108328;1281;61848;-25
2021/12/19 07:56:02;;;;;;;3.40;1.30;;;;;;;;;;108095;1286;62858;-25
2021/12/19 07:58:29;;;;;;;3.90;1.30;;;;;;;;;;108822;1282;61668;-23
2021/12/19 08:00:56;;;;;;;3.60;1.20;;;;;;;;;;106861;1282;64042;-26
2021/12/19 08:03:23;;;;;;;3.30;1.40;;;;;;;;;;106797;1282;64120;-26
2021/12/19 08:05:50;;;;;;;3.30;1.40;;;;;;;;;;106777;1282;63902;-26
2021/12/19 08:08:21;;;;;;;3.90;1.40;;;;;;;;;;106832;1282;64081;-25
2021/12/19 08:13:15;;;;;;;3.20;1.30;;;;;;;;;;106783;1282;64005;-24
2021/12/19 08:15:43;;;;;;;3.00;1.50;;;;;;;;;;106849;1279;64097;-25
2021/12/19 08:18:10;;;;;;;4.50;1.50;;;;;;;;;;106879;1279;63942;-27
2021/12/19 08:20:37;;;;;;;2.60;1.30;;;;;;;;;;106846;1271;63916;-24
2021/12/19 08:23:04;;;;;;;4.20;1.40;;;;;;;;;;106849;1276;63966;-24
2021/12/19 08:25:31;;;;;;;3.60;1.50;;;;;;;;;;106853;1279;63922;-26
2021/12/19 08:27:58;;;;;;;3.40;1.50;;;;;;;;;;106865;1278;64010;-30
2021/12/19 08:30:26;;;;;;;4.60;1.60;;;;;;;;;;106910;1279;64173;-24
2021/12/19 08:32:55;;;;;;;3.30;1.50;;;;;;;;;;106818;1280;64006;-24
2021/12/19 08:35:22;;;;;;;3.10;1.50;;;;;;;;;;106911;1278;64023;-26
2021/12/19 08:37:49;;;;;;;3.60;1.30;;;;;;;;;;107295;1279;63924;-26
2021/12/19 08:40:17;;;;;;;4.10;1.50;;;;;;;;;;106851;1279;63987;-24
2021/12/19 08:42:45;;;;;;;3.80;1.40;;;;;;;;;;106890;1279;63970;-24
2021/12/19 08:45:12;;;;;;;3.70;1.60;;;;;;;;;;108808;1278;63112;-26
2021/12/19 08:47:39;;;;;;;3.70;1.60;;;;;;;;;;108796;1279;61727;-24
2021/12/19 08:50:07;;;;;;;4.10;1.80;;;;;;;;;;107990;1280;64105;-26
2021/12/19 08:52:34;;;;;;;4.30;1.60;;;;;;;;;;106779;1281;63989;-26
2021/12/19 08:55:03;;;;;;;3.20;1.40;;;;;;;;;;106894;1279;63841;-24
2021/12/19 08:57:30;;;;;;;3.90;1.40;;;;;;;;;;108715;1279;61945;-24
2021/12/19 08:59:58;;;;;;;4.10;1.60;;;;;;;;;;108490;1279;61890;-25
2021/12/19 09:02:25;;;;;;;4.00;1.70;;;;;;;;;;108214;1282;61927;-24
2021/12/19 09:04:52;;;;;;;3.90;1.70;;;;;;;;;;106927;1279;63910;-24
2021/12/19 09:07:19;;;;;;;3.30;1.30;;;;;;;;;;106847;1278;64042;-24
2021/12/19 09:09:48;;;;;;;3.50;1.60;;;;;;;;;;106751;1282;64168;-24
2021/12/19 09:12:16;;;;;;;4.20;1.60;;;;;;;;;;108430;1282;61887;-24
2021/12/19 09:14:43;;;;;;;3.80;1.40;;;;;;;;;;107054;1276;64337;-26
2021/12/19 09:17:10;;;;;;;2.90;1.20;;;;;;;;;;106848;1279;63980;-26
2021/12/19 09:19:37;;;;;;;3.90;1.40;;;;;;;;;;106700;1279;194987;-24
2021/12/19 09:22:04;;;;;;;4.10;1.60;;;;;;;;;;106877;1278;64001;-25
2021/12/19 09:24:32;;;;;;;3.60;1.70;;;;;;;;;;106859;1278;63996;-26
2021/12/19 09:27:00;;;;;;;4.10;1.40;;;;;;;;;;106741;1278;63996;-26
2021/12/19 09:29:28;;;;;;;4.40;1.90;;;;;;;;;;106759;1279;64185;-24
2021/12/19 09:31:56;;;;;;;4.60;1.50;;;;;;;;;;106823;1282;63910;-24
2021/12/19 09:34:23;;;;;;;4.50;1.60;;;;;;;;;;106745;1282;64355;-24
2021/12/19 09:36:50;;;;;;;4.20;1.70;;;;;;;;;;106966;1279;64079;-24
2021/12/19 09:39:18;;;;;;;3.90;1.40;;;;;;;;;;106871;1279;63939;-29
2021/12/19 09:41:46;;;;;;;4.50;1.50;;;;;;;;;;107107;1279;64031;-26
2021/12/19 09:44:17;;;;;;;4.20;1.50;;;;;;;;;;106820;1279;64033;-24
2021/12/19 09:46:46;;;;;;;4.00;1.60;;;;;;;;;;107261;1279;63969;-24
2021/12/19 09:49:14;;;;;;;3.70;1.30;;;;;;;;;;108959;1282;61943;-26
2021/12/19 09:51:42;;;;;;;3.80;1.60;;;;;;;;;;108447;1279;62162;-26
2021/12/19 09:54:10;;;;;;;4.00;1.80;;;;;;;;;;108446;1282;62042;-26
2021/12/19 09:56:38;;;;;;;5.90;2.00;;;;;;;;;;107367;1281;63914;-25
2021/12/19 09:59:10;;;;;;;4.30;1.80;;;;;;;;;;106915;1279;64173;-24
2021/12/19 10:01:37;;;;;;;5.30;2.10;;;;;;;;;;108400;1282;61968;-25
2021/12/19 10:04:04;;;;;;;4.50;1.80;;;;;;;;;;108794;1279;62491;-25
2021/12/19 10:06:31;;;;;;;5.30;1.80;;;;;;;;;;108607;1278;62703;-25
2021/12/19 10:09:08;;;;;;;4.60;1.90;;;;;;;;;;106883;1282;63909;-24
2021/12/19 10:11:55;;;;;;;5.20;1.80;;;;;;;;;;106750;1278;64115;-25
2021/12/19 10:14:30;;;;;;;5.50;1.90;;;;;;;;;;106822;1278;63990;-25
2021/12/19 10:16:57;;;;;;;4.30;1.80;;;;;;;;;;106762;1281;64013;-23
2021/12/19 10:19:48;;;;;;;6.00;1.80;;;;;;;;;;109061;1279;61868;-25
2021/12/19 10:22:28;;;;;;;4.60;1.70;;;;;;;;;;108491;1282;61807;-24
2021/12/19 10:24:57;;;;;;;6.70;1.90;;;;;;;;;;106930;1279;63989;-23
2021/12/19 10:27:33;;;;;;;4.30;1.80;;;;;;;;;;106843;1282;63902;-24
2021/12/19 10:30:00;;;;;;;5.70;1.70;;;;;;;;;;106827;1278;64133;-26
2021/12/19 10:32:27;;;;;;;6.10;2.10;;;;;;;;;;106799;1278;63983;-25
2021/12/19 10:35:13;;;;;;;5.50;2.20;;;;;;;;;;106804;1278;64364;-23
2021/12/19 10:37:41;;;;;;;6.30;2.10;;;;;;;;;;106876;1278;64654;-23
2021/12/19 10:40:09;;;;;;;5.60;2.20;;;;;;;;;;106847;1279;63910;-25
2021/12/19 10:42:42;;;;;;;5.60;2.00;;;;;;;;;;108427;1286;61850;-26
2021/12/19 10:48:14;;;;;;;5.30;2.70;;;;;;;;;;106853;1278;64022;-25
2021/12/19 10:50:41;;;;;;;5.00;2.20;;;;;;;;;;106860;1279;63928;-23
2021/12/19 10:53:08;;;;;;;5.60;2.30;;;;;;;;;;106746;1282;64034;-24
2021/12/19 10:55:35;;;;;;;5.50;2.30;;;;;;;;;;106830;1279;63990;-26
2021/12/19 10:58:17;;;;;;;7.20;2.30;;;;;;;;;;107577;1279;64009;-26
2021/12/19 11:00:54;;;;;;;6.20;2.10;;;;;;;;;;106860;1279;64048;-27
2021/12/19 11:03:39;;;;;;;5.30;2.00;;;;;;;;;;106761;1281;64028;-23
2021/12/19 11:06:16;;;;;;;5.80;2.40;;;;;;;;;;106806;1280;64021;-25
2021/12/19 11:08:43;;;;;;;5.20;1.70;;;;;;;;;;106771;1281;64077;-25
2021/12/19 11:11:11;;;;;;;5.20;1.90;;;;;;;;;;107696;1278;63999;-25
2021/12/19 11:13:38;;;;;;;5.10;1.80;;;;;;;;;;106859;1278;64062;-31
2021/12/19 11:16:05;;;;;;;5.20;2.10;;;;;;;;;;106714;1282;64599;-27
2021/12/19 11:18:33;;;;;;;4.80;2.00;;;;;;;;;;106763;1282;64048;-23
2021/12/19 11:21:00;;;;;;;5.50;1.80;;;;;;;;;;107317;1278;63913;-28
2021/12/19 11:23:28;;;;;;;4.60;1.90;;;;;;;;;;106719;1277;64098;-34
2021/12/19 11:25:55;;;;;;;4.50;1.70;;;;;;;;;;106831;1282;62838;-27
2021/12/19 11:28:22;;;;;;;5.20;2.40;;;;;;;;;;106887;1279;64024;-27
2021/12/19 11:30:49;;;;;;;4.50;1.80;;;;;;;;;;108461;1282;61790;-25
2021/12/19 11:33:16;;;;;;;4.90;1.80;;;;;;;;;;108069;1282;61810;-24
2021/12/19 11:35:46;;;;;;;6.00;2.00;;;;;;;;;;109024;1282;61860;-26
2021/12/19 11:38:14;;;;;;;5.80;1.80;;;;;;;;;;107105;1282;64035;-26
2021/12/19 11:40:41;;;;;;;5.80;2.10;;;;;;;;;;106476;1282;64088;-36
2021/12/19 11:43:10;;;;;;;6.30;2.50;;;;;;;;;;106961;1279;63896;-33
2021/12/19 11:45:54;;;;;;;4.50;1.80;;;;;;;;;;106558;1282;64043;-25
2021/12/19 11:50:54;;;;;;;4.30;2.00;;;;;;;;;;107875;1282;61918;-23
2021/12/19 11:53:23;;;;;;;4.80;2.00;;;;;;;;;;106792;1282;63965;-24
2021/12/19 11:55:51;;;;;;;5.00;1.80;;;;;;;;;;106822;1278;63911;-24
2021/12/19 11:58:20;;;;;;;4.90;1.70;;;;;;;;;;106937;1280;63984;-23
2021/12/19 12:00:58;;;;;;;4.60;2.00;;;;;;;;;;107790;1282;63996;-23
2021/12/19 12:03:29;;;;;;;5.50;2.00;;;;;;;;;;106743;1281;63928;-25
2021/12/19 12:06:08;;;;;;;5.40;1.80;;;;;;;;;;106863;1271;64051;-25
2021/12/19 12:08:35;;;;;;;5.10;2.00;;;;;;;;;;106833;1282;63993;-25
2021/12/19 12:11:02;;;;;;;4.60;1.80;;;;;;;;;;106858;1279;63983;-27
2021/12/19 12:13:38;;;;;;;4.70;1.90;;;;;;;;;;107314;1282;63907;-36
2021/12/19 12:16:21;;;;;;;5.00;2.10;;;;;;;;;;107476;1278;64118;-23
2021/12/19 12:18:55;;;;;;;4.80;1.70;;;;;;;;;;108553;1282;61759;-26
2021/12/19 12:21:34;;;;;;;5.80;2.00;;;;;;;;;;109058;1282;61773;-26
2021/12/19 12:24:04;;;;;;;5.00;2.30;;;;;;;;;;107322;1282;63895;-26
2021/12/19 12:26:43;;;;;;;5.40;2.10;;;;;;;;;;107098;1281;64567;-28
2021/12/19 12:29:11;;;;;;;4.80;1.90;;;;;;;;;;106773;1282;64431;-26
2021/12/19 12:31:39;;;;;;;5.30;1.70;;;;;;;;;;106950;1282;64026;-23
2021/12/19 12:34:12;;;;;;;5.40;1.90;;;;;;;;;;108815;1282;61784;-24
2021/12/19 12:36:39;;;;;;;6.10;1.90;;;;;;;;;;108477;1282;62169;-25
2021/12/19 12:39:10;;;;;;;4.90;1.90;;;;;;;;;;108625;1282;61829;-27
2021/12/19 12:41:50;;;;;;;5.20;1.90;;;;;;;;;;107210;1282;63916;-25
2021/12/19 12:44:20;;;;;;;5.00;2.00;;;;;;;;;;108063;1281;63991;-24
2021/12/19 12:46:47;;;;;;;5.00;1.80;;;;;;;;;;107099;1279;64020;-24
2021/12/19 12:49:16;;;;;;;4.70;2.30;;;;;;;;;;106860;1279;64091;-27
2021/12/19 12:51:44;;;;;;;4.80;1.80;;;;;;;;;;106990;1279;63825;-25
2021/12/19 12:54:20;;;;;;;5.90;2.20;;;;;;;;;;106818;1282;64024;-24
2021/12/19 12:56:52;;;;;;;5.20;2.00;;;;;;;;;;106926;1279;63895;-24
2021/12/19 12:59:28;;;;;;;3.90;1.60;;;;;;;;;;106860;1282;64202;-23
2021/12/19 13:02:09;;;;;;;4.60;1.90;;;;;;;;;;106847;1282;64019;-23
2021/12/19 13:04:38;;;;;;;4.50;1.90;;;;;;;;;;109043;1279;61696;-25
2021/12/19 13:07:08;;;;;;;4.80;1.70;;;;;;;;;;106883;1279;64002;-28
2021/12/19 13:09:37;;;;;;;5.70;1.80;;;;;;;;;;106818;1285;63756;-26
2021/12/19 13:12:04;;;;;;;4.60;1.80;;;;;;;;;;108360;1285;62118;-26
2021/12/19 13:14:32;;;;;;;4.30;1.70;;;;;;;;;;108274;1288;61940;-27
2021/12/19 13:17:04;;;;;;;4.40;1.80;;;;;;;;;;108506;1283;62519;-25
2021/12/19 13:19:49;;;;;;;3.70;1.60;;;;;;;;;;108371;1285;61867;-27
2021/12/19 13:22:37;;;;;;;5.50;1.80;;;;;;;;;;108428;1285;61659;-25
2021/12/19 13:25:06;;;;;;;5.30;1.70;;;;;;;;;;106906;1282;63920;-32
2021/12/19 13:27:35;;;;;;;4.20;1.70;;;;;;;;;;107240;1285;64176;-26
2021/12/19 13:30:12;;;;;;;4.50;1.80;;;;;;;;;;106856;1285;64129;-24
2021/12/19 13:32:43;;;;;;;6.00;2.10;;;;;;;;;;106805;1282;64095;-28
2021/12/19 13:35:19;;;;;;;4.20;1.70;;;;;;;;;;106749;1283;63894;-26
2021/12/19 13:38:06;;;;;;;6.50;2.20;;;;;;;;;;106778;1283;64253;-26
2021/12/19 13:40:36;;;;;;;4.90;2.00;;;;;;;;;;106857;1282;64005;-24
2021/12/19 13:43:06;;;;;;;5.40;2.10;;;;;;;;;;107543;1281;64046;-23
2021/12/19 13:45:52;;;;;;;7.00;1.90;;;;;;;;;;107222;1282;63842;-25
2021/12/19 13:48:18;;;;;;;4.70;2.20;;;;;;;;;;106793;1282;64035;-25
2021/12/19 13:50:50;;;;;;;4.50;1.90;;;;;;;;;;107613;1284;63991;-36
2021/12/19 13:53:18;;;;;;;4.40;2.10;;;;;;;;;;107590;1281;64139;-28
2021/12/19 13:55:48;;;;;;;4.80;1.90;;;;;;;;;;107439;1285;63909;-24
2021/12/19 13:58:17;;;;;;;5.40;1.80;;;;;;;;;;108395;1283;63205;-25
2021/12/19 14:00:46;;;;;;;5.40;2.00;;;;;;;;;;108366;1285;61717;-26
2021/12/19 14:03:13;;;;;;;4.60;2.20;;;;;;;;;;107292;1285;65098;-26
2021/12/19 14:05:45;;;;;;;4.70;1.90;;;;;;;;;;106791;1281;63936;-26
2021/12/19 14:08:23;;;;;;;5.00;1.80;;;;;;;;;;106861;1285;64035;-26
2021/12/19 14:11:01;;;;;;;5.00;2.20;;;;;;;;;;106829;1279;63972;-26
2021/12/19 14:13:32;;;;;;;5.60;2.10;;;;;;;;;;106883;1280;63973;-24
2021/12/19 14:16:00;;;;;;;4.30;1.80;;;;;;;;;;106825;1280;63939;-25
2021/12/19 14:18:27;;;;;;;5.00;2.40;;;;;;;;;;107111;1282;64553;-23
2021/12/19 14:20:54;;;;;;;5.30;2.20;;;;;;;;;;106849;1282;64124;-26
2021/12/19 14:23:21;;;;;;;5.70;2.40;;;;;;;;;;106872;1279;64026;-26
2021/12/19 14:25:51;;;;;;;4.50;1.90;;;;;;;;;;106843;1279;63958;-25
2021/12/19 14:28:23;;;;;;;5.80;2.40;;;;;;;;;;108507;1283;63602;-24
2021/12/19 14:30:58;;;;;;;5.30;1.90;;;;;;;;;;107535;1283;64078;-24
2021/12/19 14:33:29;;;;;;;5.00;2.00;;;;;;;;;;108832;1280;61675;-24
2021/12/19 14:35:56;;;;;;;5.70;2.00;;;;;;;;;;107765;1282;63226;-26
2021/12/19 14:38:23;;;;;;;5.90;1.80;;;;;;;;;;106721;1282;64015;-23
2021/12/19 14:40:56;;;;;;;4.80;2.00;;;;;;;;;;106883;1278;63918;-26
2021/12/19 14:43:27;;;;;;;4.90;1.80;;;;;;;;;;106855;1279;63929;-26
2021/12/19 14:45:57;;;;;;;5.00;1.90;;;;;;;;;;106735;1279;64020;-33
2021/12/19 14:48:39;;;;;;;5.80;2.10;;;;;;;;;;106903;1279;64003;-27
2021/12/19 14:51:08;;;;;;;5.90;2.00;;;;;;;;;;106771;1282;63987;-26
2021/12/19 14:53:41;;;;;;;4.70;2.00;;;;;;;;;;106941;1282;63982;-24
2021/12/19 14:56:08;;;;;;;5.50;2.40;;;;;;;;;;106687;1284;64166;-24
2021/12/19 14:58:37;;;;;;;4.00;1.60;;;;;;;;;;106817;1280;63924;-25
2021/12/19 15:01:06;;;;;;;5.60;2.10;;;;;;;;;;108983;1283;61796;-27
2021/12/19 15:03:34;;;;;;;4.70;2.00;;;;;;;;;;109070;1282;61649;-25
2021/12/19 15:06:05;;;;;;;5.00;1.80;;;;;;;;;;108364;1279;62330;-24
2021/12/19 15:08:32;;;;;;;5.20;2.30;;;;;;;;;;107274;1282;63932;-27
2021/12/19 15:10:59;;;;;;;4.40;1.70;;;;;;;;;;106851;1283;63994;-24
2021/12/19 15:13:27;;;;;;;11.20;2.60;;;;;;;;;;106829;1282;64008;-24
2021/12/19 15:15:54;;;;;;;5.80;1.80;;;;;;;;;;106919;1282;64042;-23
2021/12/19 15:18:22;;;;;;;5.60;2.10;;;;;;;;;;106837;1279;63914;-23
2021/12/19 15:23:50;;;;;;;7.20;1.80;;;;;;;;;;98195;1272;968348;-25
2021/12/19 15:26:17;;;;;;;6.40;2.20;;;;;;;;;;106055;1287;63877;-24
2021/12/19 15:28:49;;;;;;;7.10;2.50;;;;;;;;;;106029;1287;64046;-25
2021/12/19 15:31:18;;;;;;;4.50;1.60;;;;;;;;;;106137;1287;63915;-24
2021/12/19 15:33:46;;;;;;;5.90;1.70;;;;;;;;;;106122;1289;63936;-24
2021/12/19 15:36:14;;;;;;;5.40;1.70;;;;;;;;;;105906;1291;64368;-24
2021/12/19 15:38:46;;;;;;;5.50;1.90;;;;;;;;;;106132;1287;64034;-25
2021/12/19 15:41:13;;;;;;;4.20;1.60;;;;;;;;;;105917;1290;63940;-26
2021/12/19 15:43:40;;;;;;;4.20;1.60;;;;;;;;;;106177;1287;64044;-25
2021/12/19 15:46:08;;;;;;;4.30;1.40;;;;;;;;;;106074;1287;64601;-26
2021/12/19 15:48:35;;;;;;;5.10;1.80;;;;;;;;;;106068;1288;63945;-28
2021/12/19 15:51:01;;;;;;;6.20;1.60;;;;;;;;;;105811;1291;64045;-23
2021/12/19 15:53:29;;;;;;;5.10;1.50;;;;;;;;;;105956;1287;63942;-26
2021/12/19 15:55:56;;;;;;;3.90;1.30;;;;;;;;;;105966;1288;63943;-25